createdAt,value
2022-08-04T00:19:33.164Z,17.10
2022-08-04T00:24:12.099Z,20.10
2022-08-04T00:28:13.355Z,19.20
2022-08-04T00:32:31.126Z,18.00
2022-08-04T01:07:06.376Z,19.20
2022-08-04T01:11:22.176Z,20.30
2022-08-04T01:15:56.547Z,20.90
2022-08-04T01:20:19.454Z,18.90
2022-08-04T01:24:25.863Z,20.00
2022-08-04T01:28:54.010Z,24.60
2022-08-04T01:33:30.282Z,18.90
2022-08-04T01:37:33.821Z,19.90
2022-08-04T01:41:44.766Z,19.40
2022-08-04T01:46:07.114Z,23.20
2022-08-04T01:50:15.574Z,21.00
2022-08-04T02:28:00.577Z,18.90
2022-08-04T02:32:15.630Z,19.00
2022-08-04T02:36:38.875Z,22.10
2022-08-04T02:40:47.253Z,19.60
2022-08-04T02:44:54.239Z,23.50
2022-08-04T03:01:31.158Z,23.20
2022-08-04T03:06:00.563Z,18.20
2022-08-04T03:10:13.532Z,20.50
2022-08-04T03:14:41.381Z,23.40
2022-08-04T03:19:01.551Z,17.40
2022-08-04T03:23:13.885Z,20.50
2022-08-04T03:27:40.320Z,25.70
2022-08-04T03:32:12.349Z,20.10
2022-08-04T03:36:40.593Z,25.30
2022-08-04T03:40:45.852Z,23.30
2022-08-04T03:44:52.321Z,32.60
2022-08-04T03:49:16.534Z,56.60
2022-08-04T03:54:00.880Z,44.00
2022-08-04T03:58:20.935Z,50.80
2022-08-04T04:02:45.249Z,37.20
2022-08-04T04:07:00.407Z,29.90
2022-08-04T04:11:29.341Z,37.00
2022-08-04T04:15:55.251Z,38.00
2022-08-04T04:20:27.508Z,39.40
2022-08-04T04:24:38.801Z,25.70
2022-08-04T04:29:03.500Z,24.90
2022-08-04T04:33:32.529Z,22.50
2022-08-04T04:37:58.588Z,21.20
2022-08-04T04:42:08.180Z,20.40
2022-08-04T04:46:46.816Z,16.30
2022-08-04T04:50:56.258Z,16.50
2022-08-04T04:55:34.842Z,17.20
2022-08-04T04:59:33.822Z,16.80
2022-08-04T05:03:33.309Z,37.60
2022-08-04T05:07:50.668Z,16.60
2022-08-04T05:14:22.823Z,15.90
2022-08-04T05:16:01.143Z,13.80
2022-08-04T05:18:59.138Z,15.40
2022-08-04T05:21:44.596Z,15.90
2022-08-04T05:24:15.906Z,11.50
2022-08-04T05:26:52.926Z,12.50
2022-08-04T05:29:42.190Z,14.00
2022-08-04T05:33:08.240Z,15.90
2022-08-04T05:36:20.401Z,14.50
2022-08-04T05:38:46.595Z,15.60
2022-08-04T05:41:15.068Z,13.20
2022-08-04T05:43:46.313Z,12.50
2022-08-04T05:46:16.078Z,12.50
2022-08-04T05:48:46.033Z,13.60
2022-08-04T05:51:14.627Z,17.00
2022-08-04T05:53:44.841Z,12.90
2022-08-04T05:56:16.770Z,13.20
2022-08-04T05:58:46.585Z,13.80
2022-08-04T06:01:16.881Z,12.10
2022-08-04T06:03:46.255Z,18.00
2022-08-04T06:06:15.717Z,12.00
2022-08-04T06:08:42.794Z,62.40
2022-08-04T06:11:12.411Z,15.70
2022-08-04T06:13:54.114Z,12.90
2022-08-04T06:16:30.176Z,11.60
2022-08-04T06:20:00.686Z,11.80
2022-08-04T06:21:57.020Z,17.10
2022-08-04T06:24:28.392Z,11.30
2022-08-04T06:26:56.862Z,11.20
2022-08-04T06:29:31.004Z,14.90
2022-08-04T06:32:30.769Z,12.20
2022-08-04T06:34:59.008Z,9.00
2022-08-04T06:37:42.346Z,8.80
2022-08-04T06:40:44.263Z,10.10
2022-08-04T06:43:25.505Z,11.20
2022-08-04T06:46:12.346Z,7.50
2022-08-04T06:48:39.763Z,5.80
2022-08-04T06:51:36.192Z,6.60
2022-08-04T06:54:15.025Z,6.80
2022-08-04T06:57:01.427Z,6.80
2022-08-04T06:59:32.399Z,7.40
2022-08-04T07:02:16.073Z,5.20
2022-08-04T07:05:44.002Z,5.00
2022-08-04T07:08:19.331Z,5.80
2022-08-04T07:11:25.003Z,5.60
2022-08-04T07:14:13.182Z,6.10
2022-08-04T07:18:01.238Z,5.40
2022-08-04T07:22:18.871Z,6.50
2022-08-04T07:25:15.986Z,6.00
2022-08-04T07:27:47.928Z,5.00
2022-08-04T07:30:21.724Z,6.10
2022-08-04T07:32:51.663Z,4.70
2022-08-04T07:36:03.780Z,6.30
2022-08-04T07:38:09.609Z,4.30
2022-08-04T07:40:37.670Z,4.90
2022-08-04T07:43:05.850Z,5.70
2022-08-04T07:45:33.607Z,4.70
2022-08-04T07:48:05.773Z,4.20
2022-08-04T07:50:34.760Z,6.50
2022-08-04T07:53:53.038Z,4.80
2022-08-04T07:55:50.255Z,5.20
2022-08-04T07:58:17.791Z,4.60
2022-08-04T08:00:47.384Z,4.70
2022-08-04T08:03:16.631Z,4.70
2022-08-04T08:06:16.682Z,8.80
2022-08-04T08:08:40.310Z,4.90
2022-08-04T08:11:10.148Z,9.60
2022-08-04T08:13:38.225Z,7.40
2022-08-04T08:16:06.517Z,5.00
2022-08-04T08:18:33.743Z,5.40
2022-08-04T08:21:01.123Z,5.40
2022-08-04T08:23:32.371Z,5.50
2022-08-04T08:25:59.834Z,6.80
2022-08-04T08:28:27.296Z,4.80
2022-08-04T08:30:55.300Z,4.40
2022-08-04T08:33:26.868Z,4.20
2022-08-04T08:36:05.165Z,5.10
2022-08-04T08:39:00.463Z,4.20
2022-08-04T08:42:15.985Z,4.00
2022-08-04T08:45:29.906Z,5.30
2022-08-04T08:48:42.249Z,4.30
2022-08-04T08:51:12.206Z,5.50
2022-08-04T08:54:18.064Z,5.20
2022-08-04T08:57:20.850Z,6.10
2022-08-04T09:00:02.323Z,4.50
2022-08-04T09:03:12.620Z,5.80
2022-08-04T09:06:15.374Z,7.60
2022-08-04T09:09:30.170Z,5.80
2022-08-04T09:12:25.786Z,7.10
2022-08-04T09:15:14.548Z,7.10
2022-08-04T09:18:27.344Z,5.60
2022-08-04T09:21:25.038Z,4.90
2022-08-04T09:24:35.582Z,5.20
2022-08-04T09:27:14.502Z,4.70
2022-08-04T09:30:11.941Z,6.00
2022-08-04T09:32:39.260Z,4.70
2022-08-04T09:35:40.370Z,4.40
2022-08-04T09:39:05.195Z,6.00
2022-08-04T09:42:10.144Z,5.10
2022-08-04T09:45:19.554Z,5.90
2022-08-04T09:48:09.460Z,4.80
2022-08-04T09:50:49.995Z,4.70
2022-08-04T09:53:38.775Z,4.10
2022-08-04T09:56:31.234Z,4.50
2022-08-04T09:59:24.660Z,5.20
2022-08-04T10:02:00.024Z,6.30
2022-08-04T10:04:31.706Z,6.60
2022-08-04T10:07:16.460Z,4.50
2022-08-04T10:10:18.014Z,4.10
2022-08-04T10:12:57.231Z,4.60
2022-08-04T10:15:44.558Z,5.00
2022-08-04T10:18:51.034Z,5.60
2022-08-04T10:22:29.547Z,5.30
2022-08-04T10:26:04.320Z,4.60
2022-08-04T10:28:14.883Z,5.10
2022-08-04T10:30:55.775Z,5.40
2022-08-04T10:33:32.257Z,6.40
2022-08-04T10:36:09.612Z,4.60
2022-08-04T10:38:52.653Z,6.30
2022-08-04T10:42:14.776Z,5.20
2022-08-04T10:45:05.130Z,4.40
2022-08-04T10:47:44.426Z,4.90
2022-08-04T10:50:24.862Z,5.00
2022-08-04T10:53:01.820Z,5.30
2022-08-04T10:56:30.266Z,5.10
2022-08-04T10:59:07.441Z,5.80
2022-08-04T11:02:01.558Z,4.20
2022-08-04T11:05:02.022Z,5.40
2022-08-04T11:07:33.953Z,5.60
2022-08-04T11:10:01.652Z,5.40
2022-08-04T11:12:29.738Z,4.80
2022-08-04T11:15:14.385Z,5.20
2022-08-04T11:17:59.645Z,6.60
2022-08-04T11:20:37.554Z,5.50
2022-08-04T11:23:11.089Z,6.30
2022-08-04T11:26:02.004Z,5.80
2022-08-04T11:29:03.966Z,5.80
2022-08-04T11:31:39.874Z,6.70
2022-08-04T11:34:22.802Z,5.60
2022-08-04T11:37:24.034Z,5.50
2022-08-04T11:40:07.668Z,5.20
2022-08-04T11:42:56.111Z,5.20
2022-08-04T11:45:39.137Z,7.50
2022-08-04T11:48:16.324Z,4.20
2022-08-04T11:50:53.996Z,4.40
2022-08-04T11:53:26.699Z,5.90
2022-08-04T11:56:09.313Z,5.20
2022-08-04T11:58:38.193Z,4.70
2022-08-04T12:01:27.781Z,4.40
2022-08-04T12:04:17.902Z,4.30
2022-08-04T12:07:32.182Z,4.80
2022-08-04T12:10:37.854Z,5.00
2022-08-04T12:13:37.077Z,6.30
2022-08-04T12:16:30.845Z,4.30
2022-08-04T12:19:03.838Z,3.50
2022-08-04T12:21:50.451Z,6.10
2022-08-04T12:24:33.820Z,5.10
2022-08-04T12:27:12.568Z,4.40
2022-08-04T12:29:42.252Z,4.80
2022-08-04T12:33:01.600Z,5.80
2022-08-04T12:35:40.127Z,4.40
2022-08-04T12:38:32.695Z,3.90
2022-08-04T12:41:05.244Z,5.50
2022-08-04T12:43:38.864Z,4.60
2022-08-04T12:46:27.372Z,4.10
2022-08-04T12:49:02.590Z,5.40
2022-08-04T12:52:07.460Z,5.80
2022-08-04T12:54:29.155Z,5.80
2022-08-04T12:57:03.269Z,4.80
2022-08-04T12:59:30.736Z,6.30
2022-08-04T13:02:09.505Z,4.40
2022-08-04T13:04:51.567Z,3.70
2022-08-04T13:07:25.107Z,3.10
2022-08-04T13:09:53.563Z,4.30
2022-08-04T13:12:32.831Z,3.90
2022-08-04T13:15:17.697Z,4.60
2022-08-04T13:18:14.007Z,4.70
2022-08-04T13:20:45.142Z,6.60
2022-08-04T13:23:21.519Z,4.30
2022-08-04T13:26:43.480Z,4.90
2022-08-04T13:28:43.628Z,5.70
2022-08-04T13:31:18.643Z,4.70
2022-08-04T13:33:54.466Z,4.20
2022-08-04T13:36:26.598Z,4.20
2022-08-04T13:38:59.383Z,5.10
2022-08-04T13:41:31.150Z,4.20
2022-08-04T13:44:17.311Z,4.70
2022-08-04T13:47:01.891Z,3.80
2022-08-04T13:49:54.169Z,5.50
2022-08-04T13:52:16.631Z,4.10
2022-08-04T13:54:47.723Z,4.70
2022-08-04T13:57:23.816Z,4.80
2022-08-04T13:59:59.712Z,4.70
2022-08-04T14:02:50.386Z,4.60
2022-08-04T14:05:35.277Z,4.20
2022-08-04T14:08:25.498Z,5.20
2022-08-04T14:10:57.902Z,4.50
2022-08-04T14:13:41.944Z,4.50
2022-08-04T14:16:21.600Z,4.90
2022-08-04T14:19:01.370Z,4.60
2022-08-04T14:21:28.907Z,3.90
2022-08-04T14:23:57.962Z,5.50
2022-08-04T14:26:35.810Z,6.30
2022-08-04T14:29:28.452Z,5.00
2022-08-04T14:32:12.784Z,6.50
2022-08-04T14:34:45.687Z,5.40
2022-08-04T14:37:20.843Z,4.10
2022-08-04T14:40:18.200Z,4.60
2022-08-04T14:42:55.049Z,4.10
2022-08-04T14:45:31.429Z,7.90
2022-08-04T14:47:59.937Z,6.20
2022-08-04T14:50:38.300Z,6.20
2022-08-04T14:53:17.203Z,7.70
2022-08-04T14:56:00.056Z,3.80
2022-08-04T14:58:33.744Z,5.20
2022-08-04T15:01:11.754Z,5.70
2022-08-04T15:03:50.105Z,4.80
2022-08-04T15:06:26.505Z,4.60
2022-08-04T15:08:58.041Z,5.20
2022-08-04T15:11:26.857Z,4.80
2022-08-04T15:13:56.919Z,4.00
2022-08-04T15:16:27.654Z,4.30
2022-08-04T15:18:57.605Z,6.40
2022-08-04T15:21:30.936Z,4.00
2022-08-04T15:23:59.439Z,5.50
2022-08-04T15:26:34.459Z,4.70
2022-08-04T15:29:17.004Z,4.00
2022-08-04T15:32:07.000Z,5.00
2022-08-04T15:34:51.858Z,4.70
2022-08-04T15:37:33.616Z,5.10
2022-08-04T15:40:34.581Z,4.00
2022-08-04T15:43:38.057Z,4.50
2022-08-04T15:46:42.629Z,4.30
2022-08-04T15:48:52.436Z,4.30
2022-08-04T15:51:33.018Z,4.70
2022-08-04T15:54:03.131Z,3.80
2022-08-04T15:56:31.160Z,4.70
2022-08-04T15:58:58.916Z,4.30
2022-08-04T16:01:28.028Z,4.40
2022-08-04T16:04:00.110Z,4.60
2022-08-04T16:06:29.463Z,5.40
2022-08-04T16:09:02.983Z,4.90
2022-08-04T16:11:40.541Z,7.20
2022-08-04T16:14:09.766Z,5.30
2022-08-04T16:16:42.408Z,6.20
2022-08-04T16:19:17.036Z,5.60
2022-08-04T16:21:53.030Z,5.70
2022-08-04T16:24:22.878Z,4.80
2022-08-04T16:26:53.927Z,18.30
2022-08-04T16:29:23.377Z,11.30
2022-08-04T16:32:06.247Z,11.40
2022-08-04T16:34:48.208Z,9.10
2022-08-04T16:37:20.237Z,6.40
2022-08-04T16:39:50.703Z,6.70
2022-08-04T16:42:28.365Z,5.10
2022-08-04T16:45:21.829Z,5.90
2022-08-04T16:47:48.752Z,5.30
2022-08-04T16:50:22.866Z,5.40
2022-08-04T16:52:53.089Z,5.40
2022-08-04T16:55:28.954Z,6.40
2022-08-04T16:57:59.386Z,6.40
2022-08-04T17:00:44.741Z,5.20
2022-08-04T17:03:12.862Z,13.00
2022-08-04T17:05:40.613Z,8.90
2022-08-04T17:10:58.045Z,7.90
2022-08-04T17:14:01.841Z,6.40
2022-08-04T17:16:18.986Z,6.80
2022-08-04T17:18:50.090Z,6.10
2022-08-04T17:21:25.261Z,7.70
2022-08-04T17:24:16.307Z,6.80
2022-08-04T17:28:19.263Z,6.70
2022-08-04T17:30:41.157Z,7.20
2022-08-04T17:34:34.038Z,5.90
2022-08-04T17:38:13.799Z,7.20
2022-08-04T17:41:19.500Z,6.40
2022-08-04T17:44:40.994Z,8.50
2022-08-04T17:47:58.681Z,7.70
2022-08-04T17:52:04.739Z,7.90
2022-08-04T17:59:55.611Z,7.60
2022-08-04T18:03:52.939Z,21.10
2022-08-04T18:08:41.417Z,9.20
2022-08-04T18:11:18.304Z,11.70
2022-08-04T18:14:57.542Z,8.30
2022-08-04T18:18:45.122Z,8.50
2022-08-04T18:22:01.252Z,6.50
2022-08-04T18:25:50.536Z,6.20
2022-08-04T18:30:34.124Z,8.80
2022-08-04T18:34:22.218Z,10.60
2022-08-04T18:38:34.080Z,9.90
2022-08-04T19:08:32.666Z,9.00
2022-08-04T19:12:33.885Z,9.50
2022-08-04T19:16:46.118Z,7.70
2022-08-04T19:20:56.740Z,16.10
2022-08-04T19:35:55.153Z,10.80
2022-08-04T19:38:35.190Z,14.60
2022-08-04T19:42:04.400Z,12.50
2022-08-04T19:45:45.947Z,11.10
2022-08-04T19:48:59.294Z,11.10
2022-08-04T19:52:33.870Z,11.80
2022-08-04T19:56:10.707Z,8.40
2022-08-04T19:59:34.082Z,29.80
2022-08-04T20:02:35.306Z,12.10
2022-08-04T20:06:16.823Z,10.00
2022-08-04T20:09:53.524Z,7.80
2022-08-04T20:18:35.708Z,10.80
2022-08-04T20:22:52.088Z,7.10
2022-08-04T20:27:07.612Z,10.80
2022-08-04T20:43:40.486Z,8.70
2022-08-04T20:47:53.192Z,9.10
2022-08-04T21:11:47.205Z,9.30
2022-08-04T21:15:17.762Z,8.40
2022-08-04T21:19:04.027Z,8.00
2022-08-04T21:22:33.617Z,9.40
2022-08-04T21:26:29.426Z,8.40
2022-08-04T21:30:25.292Z,8.80
2022-08-04T21:36:43.863Z,8.00
2022-08-04T22:11:53.707Z,10.10
2022-08-04T22:47:38.817Z,11.20
2022-08-04T22:51:27.223Z,11.80
2022-08-04T22:55:10.933Z,13.70
2022-08-04T22:58:28.671Z,10.90
2022-08-04T23:02:00.580Z,11.20
2022-08-04T23:05:35.921Z,10.40
2022-08-04T23:09:26.939Z,10.60
2022-08-04T23:13:27.730Z,8.80
2022-08-04T23:36:29.571Z,9.50
2022-08-04T23:40:33.591Z,10.30
2022-08-04T23:44:42.940Z,8.80
2022-08-04T23:48:15.398Z,9.60
